createdAt,value
2023-04-21T00:01:36.680Z,99809.81
2023-04-21T00:04:09.957Z,99815.02
2023-04-21T00:06:42.718Z,99811.72
2023-04-21T00:09:14.478Z,99809.66
2023-04-21T00:11:46.115Z,99809.59
2023-04-21T00:14:18.103Z,99805.55
2023-04-21T00:16:51.304Z,99803.63
2023-04-21T00:19:23.984Z,99806.61
2023-04-21T00:21:57.218Z,99803.83
2023-04-21T00:24:28.977Z,99801.47
2023-04-21T00:27:01.117Z,99803.30
2023-04-21T00:29:32.830Z,99802.34
2023-04-21T00:32:06.063Z,99799.98
2023-04-21T00:34:37.929Z,99795.92
2023-04-21T00:37:09.499Z,99799.50
2023-04-21T00:39:42.672Z,99795.05
2023-04-21T00:42:17.424Z,99799.11
2023-04-21T00:44:49.292Z,99797.41
2023-04-21T00:47:21.085Z,99796.19
2023-04-21T00:49:54.047Z,99798.30
2023-04-21T00:52:25.642Z,99797.95
2023-04-21T00:54:57.605Z,99797.38
2023-04-21T00:57:29.863Z,99795.78
2023-04-21T01:00:01.510Z,99799.84
2023-04-21T01:02:35.535Z,99792.00
2023-04-21T01:05:09.721Z,99795.84
2023-04-21T01:07:42.844Z,99797.19
2023-04-21T01:10:14.465Z,99798.89
2023-04-21T01:12:48.000Z,99796.92
2023-04-21T01:15:19.621Z,99796.92
2023-04-21T01:17:52.977Z,99791.51
2023-04-21T01:20:24.519Z,99791.51
2023-04-21T01:22:56.096Z,99788.80
2023-04-21T01:25:29.281Z,99785.88
2023-04-21T01:28:00.829Z,99782.23
2023-04-21T01:30:33.131Z,99785.06
2023-04-21T01:33:04.816Z,99781.89
2023-04-21T01:35:36.921Z,99779.84
2023-04-21T01:38:08.608Z,99779.24
2023-04-21T01:40:42.069Z,99777.41
2023-04-21T01:43:14.305Z,99774.70
2023-04-21T01:45:46.081Z,99778.02
2023-04-21T01:48:17.776Z,99781.13
2023-04-21T01:50:49.564Z,99775.16
2023-04-21T01:53:21.148Z,99772.93
2023-04-21T01:55:52.676Z,99777.47
2023-04-21T01:58:24.642Z,99769.79
2023-04-21T02:00:56.280Z,99771.41
2023-04-21T02:03:28.809Z,99768.84
2023-04-21T02:06:00.929Z,99762.56
2023-04-21T02:08:32.576Z,99763.42
2023-04-21T02:11:04.858Z,99760.34
2023-04-21T02:13:37.031Z,99753.71
2023-04-21T02:16:13.893Z,99747.69
2023-04-21T02:18:44.608Z,99746.06
2023-04-21T02:21:16.477Z,99744.59
2023-04-21T02:23:48.101Z,99739.17
2023-04-21T02:26:20.553Z,99735.60
2023-04-21T02:28:52.157Z,99742.63
2023-04-21T02:31:23.692Z,99742.41
2023-04-21T02:33:56.131Z,99744.41
2023-04-21T02:36:27.885Z,99741.46
2023-04-21T02:39:01.391Z,99739.41
2023-04-21T02:41:33.177Z,99735.48
2023-04-21T02:44:05.161Z,99739.16
2023-04-21T02:46:36.861Z,99734.75
2023-04-21T02:49:09.116Z,99727.13
2023-04-21T02:51:40.711Z,99727.86
2023-04-21T02:54:12.583Z,99725.02
2023-04-21T02:56:44.121Z,99728.81
2023-04-21T02:59:16.973Z,99734.79
2023-04-21T03:01:49.305Z,99732.69
2023-04-21T03:04:21.089Z,99733.17
2023-04-21T03:06:54.209Z,99732.55
2023-04-21T03:09:25.994Z,99735.88
2023-04-21T03:11:57.937Z,99732.81
2023-04-21T03:14:29.448Z,99734.52
2023-04-21T03:17:00.987Z,99734.52
2023-04-21T03:19:34.482Z,99732.47
2023-04-21T03:22:06.565Z,99722.41
2023-04-21T03:24:39.023Z,99732.86
2023-04-21T03:27:11.234Z,99734.00
2023-04-21T03:29:43.045Z,99730.78
2023-04-21T03:32:14.740Z,99728.45
2023-04-21T03:34:47.176Z,99726.73
2023-04-21T03:37:18.771Z,99733.60
2023-04-21T03:39:50.353Z,99731.33
2023-04-21T03:42:22.732Z,99737.34
2023-04-21T03:44:54.808Z,99737.69
2023-04-21T03:47:26.906Z,99733.84
2023-04-21T03:49:58.463Z,99730.53
2023-04-21T03:52:30.562Z,99724.85
2023-04-21T03:55:02.253Z,99725.94
2023-04-21T03:57:34.502Z,99723.09
2023-04-21T04:00:07.031Z,99721.16
2023-04-21T04:02:41.774Z,99720.55
2023-04-21T04:05:13.642Z,99721.84
2023-04-21T04:07:46.210Z,99719.52
2023-04-21T04:10:17.869Z,99719.73
2023-04-21T04:12:49.805Z,99717.10
2023-04-21T04:15:21.378Z,99719.67
2023-04-21T04:17:53.500Z,99726.16
2023-04-21T04:20:25.187Z,99725.23
2023-04-21T04:22:57.512Z,99729.02
2023-04-21T04:25:29.310Z,99735.52
2023-04-21T04:28:00.973Z,99728.47
2023-04-21T04:30:33.419Z,99731.25
2023-04-21T04:33:05.687Z,99733.06
2023-04-21T04:35:37.789Z,99728.59
2023-04-21T04:38:09.297Z,99730.22
2023-04-21T04:40:42.546Z,99730.75
2023-04-21T04:43:15.183Z,99738.38
2023-04-21T04:45:46.764Z,99739.24
2023-04-21T04:48:18.812Z,99729.92
2023-04-21T04:50:50.563Z,99731.12
2023-04-21T04:53:22.119Z,99736.52
2023-04-21T04:55:54.178Z,99733.41
2023-04-21T04:58:25.646Z,99737.22
2023-04-21T05:00:57.144Z,99737.42
2023-04-21T05:03:29.437Z,99739.63
2023-04-21T05:06:01.242Z,99741.23
2023-04-21T05:08:32.916Z,99738.91
2023-04-21T05:11:04.786Z,99746.45
2023-04-21T05:13:46.636Z,99749.59
2023-04-21T05:16:18.382Z,99747.35
2023-04-21T05:18:56.598Z,99749.19
2023-04-21T05:21:28.423Z,99753.55
2023-04-21T05:24:01.227Z,99750.64
2023-04-21T05:26:32.809Z,99747.52
2023-04-21T05:29:04.377Z,99747.92
2023-04-21T05:31:36.175Z,99738.69
2023-04-21T05:34:13.306Z,99745.05
2023-04-21T05:36:44.978Z,99754.91
2023-04-21T05:39:17.886Z,99748.69
2023-04-21T05:41:49.405Z,99740.50
2023-04-21T05:44:21.492Z,99740.02
2023-04-21T05:46:53.755Z,99740.52
2023-04-21T05:49:25.474Z,99734.35
2023-04-21T05:51:57.024Z,99731.05
2023-04-21T05:54:28.720Z,99730.94
2023-04-21T05:57:01.328Z,99726.53
2023-04-21T05:59:33.430Z,99726.41
2023-04-21T06:02:05.198Z,99724.90
2023-04-21T06:04:37.227Z,99724.92
2023-04-21T06:07:10.622Z,99727.67
2023-04-21T06:09:42.580Z,99725.61
2023-04-21T06:12:14.190Z,99723.41
2023-04-21T06:14:45.906Z,99721.00
2023-04-21T06:17:18.911Z,99723.20
2023-04-21T06:19:52.455Z,99721.50
2023-04-21T06:22:24.873Z,99724.53
2023-04-21T06:24:56.948Z,99722.83
2023-04-21T06:27:29.532Z,99726.41
2023-04-21T06:30:01.351Z,99721.42
2023-04-21T06:32:33.562Z,99723.62
2023-04-21T06:35:17.008Z,99719.82
2023-04-21T06:37:48.732Z,99718.44
2023-04-21T06:40:20.503Z,99721.70
2023-04-21T06:42:52.076Z,99727.88
2023-04-21T06:45:24.759Z,99725.45
2023-04-21T06:47:56.419Z,99725.42
2023-04-21T06:50:28.035Z,99727.02
2023-04-21T06:52:59.798Z,99724.16
2023-04-21T06:55:31.462Z,99731.52
2023-04-21T06:58:03.201Z,99724.73
2023-04-21T07:00:35.531Z,99723.59
2023-04-21T07:03:07.511Z,99724.28
2023-04-21T07:05:40.029Z,99720.11
2023-04-21T07:08:11.882Z,99723.76
2023-04-21T07:10:44.258Z,99723.59
2023-04-21T07:13:16.151Z,99719.25
2023-04-21T07:15:47.808Z,99716.59
2023-04-21T07:18:19.793Z,99717.38
2023-04-21T07:20:52.694Z,99717.48
2023-04-21T07:23:24.492Z,99717.51
2023-04-21T07:25:56.184Z,99713.06
2023-04-21T07:28:28.003Z,99716.44
2023-04-21T07:31:01.623Z,99715.20
2023-04-21T07:33:33.814Z,99721.66
2023-04-21T07:36:06.352Z,99725.51
2023-04-21T07:38:38.422Z,99726.13
2023-04-21T07:41:12.326Z,99733.10
2023-04-21T07:43:44.134Z,99727.06
2023-04-21T07:46:15.954Z,99728.99
2023-04-21T07:48:47.806Z,99731.67
2023-04-21T07:51:19.946Z,99728.70
2023-04-21T07:53:52.286Z,99722.42
2023-04-21T07:56:23.752Z,99722.29
2023-04-21T07:58:55.752Z,99726.08
2023-04-21T08:01:27.330Z,99717.22
2023-04-21T08:03:58.998Z,99729.27
2023-04-21T08:06:33.374Z,99723.25
2023-04-21T08:09:05.462Z,99733.50
2023-04-21T08:11:37.576Z,99721.31
2023-04-21T08:14:11.046Z,99729.75
2023-04-21T08:16:43.072Z,99728.29
2023-04-21T08:19:14.917Z,99731.81
2023-04-21T08:21:46.777Z,99735.78
2023-04-21T08:24:19.014Z,99729.30
2023-04-21T08:26:50.800Z,99729.14
2023-04-21T08:29:23.115Z,99737.26
2023-04-21T08:31:55.296Z,99726.84
2023-04-21T08:34:27.897Z,99732.60
2023-04-21T08:36:59.831Z,99736.53
2023-04-21T08:39:31.749Z,99740.66
2023-04-21T08:42:03.792Z,99739.91
2023-04-21T08:44:35.659Z,99737.54
2023-04-21T08:47:07.446Z,99741.18
2023-04-21T08:49:39.716Z,99760.55
2023-04-21T08:52:12.476Z,99761.25
2023-04-21T08:54:44.093Z,99752.80
2023-04-21T08:57:16.408Z,99749.95
2023-04-21T08:59:48.110Z,99758.48
2023-04-21T09:02:20.390Z,99760.92
2023-04-21T09:04:52.857Z,99752.83
2023-04-21T09:07:36.470Z,99748.58
2023-04-21T09:10:08.766Z,99752.38
2023-04-21T09:12:44.001Z,99755.59
2023-04-21T09:15:16.027Z,99757.72
2023-04-21T09:17:48.122Z,99761.54
2023-04-21T09:20:21.474Z,99766.19
2023-04-21T09:22:53.275Z,99763.47
2023-04-21T09:25:25.090Z,99760.65
2023-04-21T09:27:56.828Z,99768.56
2023-04-21T09:30:28.481Z,99769.59
2023-04-21T09:33:00.557Z,99771.03
2023-04-21T09:35:40.416Z,99777.58
2023-04-21T09:38:13.205Z,99775.00
2023-04-21T09:40:44.726Z,99777.41
2023-04-21T09:43:16.776Z,99779.93
2023-04-21T09:45:48.309Z,99779.32
2023-04-21T09:48:22.308Z,99775.22
2023-04-21T09:51:22.807Z,99784.79
2023-04-21T09:53:26.789Z,99782.38
2023-04-21T09:55:58.483Z,99776.41
2023-04-21T09:58:31.528Z,99779.66
2023-04-21T10:01:04.892Z,99780.41
2023-04-21T10:03:37.862Z,99789.83
2023-04-21T10:06:09.842Z,99782.84
2023-04-21T10:08:42.589Z,99796.50
2023-04-21T10:11:14.509Z,99791.15
2023-04-21T10:13:46.519Z,99796.46
2023-04-21T10:16:18.475Z,99792.39
2023-04-21T10:18:51.181Z,99802.33
2023-04-21T10:21:27.284Z,99804.05
2023-04-21T10:23:59.183Z,99816.35
2023-04-21T10:26:35.936Z,99806.14
2023-04-21T10:29:09.491Z,99816.70
2023-04-21T10:31:54.076Z,99818.92
2023-04-21T10:34:39.084Z,99828.61
2023-04-21T10:37:12.585Z,99829.64
2023-04-21T10:39:54.627Z,99813.11
2023-04-21T10:42:27.726Z,99802.70
2023-04-21T10:45:05.144Z,99796.21
2023-04-21T10:47:45.491Z,99798.59
2023-04-21T10:50:26.923Z,99792.98
2023-04-21T10:53:12.292Z,99807.23
2023-04-21T10:55:43.892Z,99799.27
2023-04-21T10:58:16.873Z,99790.30
2023-04-21T11:00:48.594Z,99800.93
2023-04-21T11:03:20.944Z,99803.09
2023-04-21T11:05:53.035Z,99804.70
2023-04-21T11:08:24.865Z,99794.17
2023-04-21T11:10:56.469Z,99794.23
2023-04-21T11:13:30.689Z,99780.11
2023-04-21T11:16:04.408Z,99786.13
2023-04-21T11:18:41.418Z,99782.03
2023-04-21T11:21:18.851Z,99789.19
2023-04-21T11:23:51.619Z,99779.95
2023-04-21T11:26:38.909Z,99774.86
2023-04-21T11:29:21.561Z,99773.16
2023-04-21T11:31:53.972Z,99771.30
2023-04-21T11:34:26.711Z,99762.53
2023-04-21T11:36:58.295Z,99759.72
2023-04-21T11:39:32.000Z,99752.84
2023-04-21T11:42:03.598Z,99761.02
2023-04-21T11:44:40.732Z,99756.06
2023-04-21T11:47:17.561Z,99751.23
2023-04-21T11:50:01.157Z,99742.70
2023-04-21T11:52:36.627Z,99740.38
2023-04-21T11:55:15.627Z,99734.50
2023-04-21T11:57:47.739Z,99728.13
2023-04-21T12:00:20.337Z,99729.02
2023-04-21T12:02:58.721Z,99738.49
2023-04-21T13:05:47.403Z,99680.80
2023-04-21T13:11:00.260Z,99688.95
2023-04-21T13:13:33.142Z,99684.94
2023-04-21T13:16:04.766Z,99687.62
2023-04-21T13:18:37.657Z,99687.30
2023-04-21T13:21:09.520Z,99676.89
2023-04-21T13:23:41.222Z,99674.84
2023-04-21T13:26:13.721Z,99677.08
2023-04-21T13:28:45.702Z,99671.60
2023-04-21T13:31:17.701Z,99672.97
2023-04-21T13:33:49.761Z,99670.38
2023-04-21T13:36:23.194Z,99668.95
2023-04-21T13:38:56.150Z,99662.73
2023-04-21T13:41:28.454Z,99659.25
2023-04-21T13:44:00.597Z,99656.95
2023-04-21T13:46:32.426Z,99655.52
2023-04-21T13:49:03.961Z,99654.16
2023-04-21T13:51:35.675Z,99655.89
2023-04-21T13:54:07.631Z,99651.48
2023-04-21T13:56:39.556Z,99647.97
2023-04-21T13:59:12.075Z,99657.74
2023-04-21T14:01:43.617Z,99652.34
2023-04-21T14:04:15.627Z,99654.12
2023-04-21T14:06:47.685Z,99649.44
2023-04-21T14:09:19.311Z,99655.96
2023-04-21T14:11:51.204Z,99656.28
2023-04-21T14:14:37.532Z,99654.55
2023-04-21T14:19:40.381Z,99655.02
2023-04-21T14:22:12.103Z,99649.59
2023-04-21T14:24:43.846Z,99649.23
2023-04-21T14:27:15.584Z,99646.55
2023-04-21T14:29:47.161Z,99648.29
2023-04-21T14:32:20.948Z,99648.70
2023-04-21T14:34:57.446Z,99644.31
2023-04-21T14:37:29.235Z,99642.95
2023-04-21T14:40:01.034Z,99643.67
2023-04-21T14:42:33.479Z,99641.44
2023-04-21T14:45:05.739Z,99640.25
2023-04-21T14:47:38.598Z,99637.88
2023-04-21T14:50:10.657Z,99633.82
2023-04-21T14:52:42.277Z,99632.49
2023-04-21T14:55:13.835Z,99636.63
2023-04-21T14:57:47.040Z,99638.40
2023-04-21T15:00:19.658Z,99631.93
2023-04-21T15:02:53.144Z,99637.58
2023-04-21T15:05:24.974Z,99638.15
2023-04-21T15:07:56.606Z,99646.17
2023-04-21T15:13:12.460Z,99642.50
2023-04-21T15:15:44.057Z,99641.99
2023-04-21T15:18:15.959Z,99633.50
2023-04-21T15:20:47.642Z,99643.27
2023-04-21T15:23:20.359Z,99647.22
2023-04-21T15:25:52.776Z,99657.64
2023-04-21T15:28:24.811Z,99664.52
2023-04-21T15:30:56.514Z,99677.69
2023-04-21T15:33:28.538Z,99676.70
2023-04-21T15:36:00.348Z,99668.02
2023-04-21T15:38:32.354Z,99657.61
2023-04-21T15:41:03.942Z,99653.02
2023-04-21T15:43:36.795Z,99656.12
2023-04-21T15:46:10.095Z,99647.97
2023-04-21T15:48:41.844Z,99641.67
2023-04-21T15:51:13.761Z,99632.98
2023-04-21T15:53:47.241Z,99634.18
2023-04-21T15:56:19.222Z,99637.77
2023-04-21T15:58:51.196Z,99644.42
2023-04-21T16:01:23.600Z,99653.62
2023-04-21T16:03:55.805Z,99652.27
2023-04-21T16:06:29.422Z,99650.91
2023-04-21T16:09:01.340Z,99650.04
2023-04-21T16:11:34.510Z,99642.89
2023-04-21T16:14:06.343Z,99631.12
2023-04-21T16:16:38.137Z,99634.04
2023-04-21T16:19:09.981Z,99627.89
2023-04-21T16:21:42.688Z,99628.41
2023-04-21T16:24:14.426Z,99620.25
2023-04-21T16:26:46.198Z,99606.27
2023-04-21T16:29:18.261Z,99600.97
2023-04-21T16:31:49.961Z,99599.08
2023-04-21T16:34:21.693Z,99596.55
2023-04-21T16:36:53.457Z,99598.59
2023-04-21T16:39:25.239Z,99603.55
2023-04-21T16:41:56.915Z,99613.42
2023-04-21T16:44:28.719Z,99612.06
2023-04-21T16:47:00.420Z,99615.96
2023-04-21T16:49:32.563Z,99606.59
2023-04-21T16:52:04.533Z,99618.20
2023-04-21T16:54:36.574Z,99617.50
2023-04-21T16:57:09.573Z,99620.56
2023-04-21T16:59:41.429Z,99620.41
2023-04-21T17:02:13.434Z,99634.87
2023-04-21T17:04:46.228Z,99634.21
2023-04-21T17:07:18.453Z,99638.47
2023-04-21T17:09:51.459Z,99641.36
2023-04-21T17:12:24.174Z,99641.03
2023-04-21T17:14:56.385Z,99649.20
2023-04-21T17:17:28.214Z,99657.72
2023-04-21T17:19:59.847Z,99659.42
2023-04-21T17:22:31.717Z,99661.78
2023-04-21T17:25:04.820Z,99665.66
2023-04-21T17:27:37.763Z,99672.47
2023-04-21T17:30:10.359Z,99668.34
2023-04-21T17:32:42.278Z,99680.25
2023-04-21T17:35:14.346Z,99684.12
2023-04-21T17:37:46.703Z,99688.52
2023-04-21T17:40:18.747Z,99681.65
2023-04-21T17:42:50.443Z,99672.39
2023-04-21T17:45:22.124Z,99669.43
2023-04-21T17:47:54.054Z,99676.72
2023-04-21T17:50:27.649Z,99686.89
2023-04-21T17:52:59.741Z,99682.48
2023-04-21T17:55:32.832Z,99686.05
2023-04-21T17:58:04.421Z,99687.72
2023-04-21T18:00:36.362Z,99689.41
2023-04-21T18:03:08.704Z,99672.84
2023-04-21T18:05:40.978Z,99665.86
2023-04-21T18:08:12.793Z,99662.92
2023-04-21T18:10:45.211Z,99662.41
2023-04-21T18:13:17.330Z,99661.70
2023-04-21T18:15:49.230Z,99663.43
2023-04-21T18:18:21.024Z,99661.05
2023-04-21T18:20:52.870Z,99662.55
2023-04-21T18:23:24.695Z,99654.36
2023-04-21T18:25:56.441Z,99651.28
2023-04-21T18:28:29.512Z,99653.00
2023-04-21T18:31:01.709Z,99653.84
2023-04-21T18:33:33.580Z,99656.73
2023-04-21T18:36:06.103Z,99660.81
2023-04-21T18:38:37.879Z,99664.89
2023-04-21T18:41:10.037Z,99666.78
2023-04-21T18:43:41.864Z,99675.13
2023-04-21T18:46:13.812Z,99668.81
2023-04-21T18:48:45.741Z,99676.82
2023-04-21T18:51:17.584Z,99678.55
2023-04-21T18:53:49.372Z,99671.75
2023-04-21T18:56:21.761Z,99667.30
2023-04-21T18:58:53.770Z,99662.02
2023-04-21T19:01:25.692Z,99670.17
2023-04-21T19:03:57.815Z,99662.17
2023-04-21T19:06:29.789Z,99657.27
2023-04-21T19:09:02.043Z,99658.80
2023-04-21T19:11:34.400Z,99656.08
2023-04-21T19:14:06.934Z,99656.42
2023-04-21T19:16:40.768Z,99659.51
2023-04-21T19:19:12.984Z,99646.56
2023-04-21T19:21:45.152Z,99640.26
2023-04-21T19:24:17.169Z,99630.55
2023-04-21T19:26:48.831Z,99623.34
2023-04-21T19:29:20.659Z,99616.50
2023-04-21T19:31:52.447Z,99614.72
2023-04-21T19:34:24.188Z,99616.38
2023-04-21T19:36:55.890Z,99610.55
2023-04-21T19:39:27.495Z,99605.08
2023-04-21T19:41:59.316Z,99603.39
2023-04-21T19:44:31.366Z,99610.83
2023-04-21T19:47:03.103Z,99611.48
2023-04-21T19:49:35.616Z,99606.41
2023-04-21T19:52:07.346Z,99599.47
2023-04-21T19:54:40.746Z,99606.26
2023-04-21T19:57:12.822Z,99606.57
2023-04-21T19:59:44.601Z,99605.37
2023-04-21T20:02:16.460Z,99605.68
2023-04-21T20:04:49.248Z,99608.22
2023-04-21T20:07:21.074Z,99615.16
2023-04-21T20:09:52.771Z,99620.37
2023-04-21T20:12:24.811Z,99615.81
2023-04-21T20:14:56.510Z,99627.33
2023-04-21T20:17:29.084Z,99622.91
2023-04-21T20:20:01.253Z,99623.59
2023-04-21T20:22:33.258Z,99613.37
2023-04-21T20:25:06.086Z,99617.45
2023-04-21T20:27:37.837Z,99620.17
2023-04-21T20:30:09.731Z,99617.95
2023-04-21T20:32:41.387Z,99614.39
2023-04-21T20:35:16.749Z,99622.86
2023-04-21T20:37:48.120Z,99612.80
2023-04-21T20:40:21.785Z,99610.75
2023-04-21T20:42:53.488Z,99610.02
2023-04-21T20:45:26.185Z,99609.45
2023-04-21T20:47:58.022Z,99606.55
2023-04-21T20:50:29.972Z,99601.95
2023-04-21T20:53:02.266Z,99607.39
2023-04-21T20:55:34.105Z,99601.89
2023-04-21T20:58:06.294Z,99603.77
2023-04-21T21:00:38.009Z,99602.56
2023-04-21T21:03:11.807Z,99606.64
2023-04-21T21:05:43.799Z,99602.56
2023-04-21T21:08:15.461Z,99606.27
2023-04-21T21:10:47.534Z,99595.78
2023-04-21T21:13:19.180Z,99604.27
2023-04-21T21:15:50.718Z,99598.34
2023-04-21T21:18:22.395Z,99593.89
2023-04-21T21:20:54.096Z,99602.20
2023-04-21T21:23:26.238Z,99600.16
2023-04-21T21:25:58.695Z,99604.87
2023-04-21T21:28:31.051Z,99605.70
2023-04-21T21:31:02.814Z,99600.22
2023-04-21T21:33:35.190Z,99600.17
2023-04-21T21:36:07.326Z,99603.72
2023-04-21T21:38:39.465Z,99607.95
2023-04-21T21:41:12.330Z,99603.31
2023-04-21T21:43:44.347Z,99604.63
2023-04-21T21:46:16.515Z,99604.22
2023-04-21T21:48:48.418Z,99605.69
2023-04-21T21:51:20.049Z,99603.58
2023-04-21T21:53:51.686Z,99602.33
2023-04-21T21:56:25.813Z,99600.41
2023-04-21T21:58:57.619Z,99603.95
2023-04-21T22:01:29.241Z,99612.38
2023-04-21T22:04:01.039Z,99610.12
2023-04-21T22:06:34.985Z,99608.05
2023-04-21T22:09:06.797Z,99610.56
2023-04-21T22:11:38.325Z,99609.88
2023-04-21T22:14:21.781Z,99608.82
2023-04-21T22:16:45.484Z,99610.09
2023-04-21T22:19:19.233Z,99603.65
2023-04-21T22:21:51.031Z,99605.98
2023-04-21T22:24:22.813Z,99604.44
2023-04-21T22:26:54.498Z,99603.23
2023-04-21T22:29:26.267Z,99598.10
2023-04-21T22:31:57.991Z,99600.62
2023-04-21T22:34:29.551Z,99601.78
2023-04-21T22:37:02.360Z,99596.99
2023-04-21T22:39:34.745Z,99596.65
2023-04-21T22:42:08.054Z,99598.00
2023-04-21T22:44:39.652Z,99593.03
2023-04-21T22:47:12.209Z,99595.50
2023-04-21T22:49:43.859Z,99598.07
2023-04-21T22:52:15.870Z,99588.95
2023-04-21T22:54:47.559Z,99591.15
2023-04-21T22:57:19.166Z,99586.44
2023-04-21T22:59:50.706Z,99579.38
2023-04-21T23:02:22.368Z,99579.76
2023-04-21T23:04:55.878Z,99577.77
2023-04-21T23:07:27.381Z,99583.53
2023-04-21T23:09:59.476Z,99583.91
2023-04-21T23:12:31.287Z,99582.17
2023-04-21T23:15:02.951Z,99580.63
2023-04-21T23:17:35.301Z,99590.78
2023-04-21T23:20:08.528Z,99585.28
2023-04-21T23:22:41.668Z,99585.95
2023-04-21T23:25:13.527Z,99584.38
2023-04-21T23:27:45.719Z,99588.95
2023-04-21T23:30:17.593Z,99585.04
2023-04-21T23:32:50.517Z,99584.66
2023-04-21T23:35:22.201Z,99589.74
2023-04-21T23:37:54.448Z,99583.27
2023-04-21T23:40:25.997Z,99584.08
2023-04-21T23:42:58.025Z,99585.58
2023-04-21T23:45:30.211Z,99589.94
2023-04-21T23:48:02.259Z,99588.87
2023-04-21T23:50:34.094Z,99587.32
2023-04-21T23:53:05.705Z,99583.41
2023-04-21T23:55:37.652Z,99581.97
2023-04-21T23:58:09.574Z,99580.27
